Celje, Slovenia
Current Conditions -  °F | °C
As of 2:00 PM on Thursday 30 Oct 2014 (Local Time) from LJCE Reporting Station
Few Clouds Few Clouds  
Wind Chill: 52°   Ceiling: Unl
Heat Index: 52°   Visibility: 6mi
Dew Point: 39°   Wind: 2mph
Humidity: 62%   Direction: NA
Pressure: 30.27"   Gusts: NA
Location:  46.24°N, 15.27°E
Report Text: LJCE 301200Z VRB02KT 9999 FEW027 11/04 Q1025 RMK BLU
Loading
Personal Weather Stations






























Interactive Weather Map
Tropical Storm Tracking
New forecast layout! Learn more

10-Day Weather Forecast

Advertisements
Track Severe Weather on mobile